sensor_id;sensor_type;location;lat;lon;timestamp;P1;durP1;ratioP1;P2;durP2;ratioP2
34302;SDS011;20785;50.020;19.916;2022-10-16T00:03:28;13.62;;;10.03;;
34302;SDS011;20785;50.020;19.916;2022-10-16T00:09:29;17.23;;;10.32;;
34302;SDS011;20785;50.020;19.916;2022-10-16T00:15:33;14.73;;;9.38;;
34302;SDS011;20785;50.020;19.916;2022-10-16T00:21:37;15.70;;;9.35;;
34302;SDS011;20785;50.020;19.916;2022-10-16T00:27:38;13.58;;;8.80;;
34302;SDS011;20785;50.020;19.916;2022-10-16T00:33:39;18.10;;;10.23;;
34302;SDS011;20785;50.020;19.916;2022-10-16T00:39:41;14.53;;;10.35;;
34302;SDS011;20785;50.020;19.916;2022-10-16T00:45:42;15.63;;;10.08;;
34302;SDS011;20785;50.020;19.916;2022-10-16T00:51:50;15.43;;;9.88;;
34302;SDS011;20785;50.020;19.916;2022-10-16T00:57:54;12.73;;;8.25;;
34302;SDS011;20785;50.020;19.916;2022-10-16T01:04:02;14.85;;;8.90;;
34302;SDS011;20785;50.020;19.916;2022-10-16T01:22:50;14.25;;;9.40;;
34302;SDS011;20785;50.020;19.916;2022-10-16T01:29:16;17.85;;;9.65;;
34302;SDS011;20785;50.020;19.916;2022-10-16T01:35:45;14.20;;;9.48;;
34302;SDS011;20785;50.020;19.916;2022-10-16T01:42:34;12.95;;;8.88;;
34302;SDS011;20785;50.020;19.916;2022-10-16T01:48:53;15.45;;;9.43;;
34302;SDS011;20785;50.020;19.916;2022-10-16T01:54:57;15.75;;;9.18;;
34302;SDS011;20785;50.020;19.916;2022-10-16T02:01:03;13.78;;;9.28;;
34302;SDS011;20785;50.020;19.916;2022-10-16T02:07:07;14.98;;;9.23;;
34302;SDS011;20785;50.020;19.916;2022-10-16T02:13:10;14.78;;;8.53;;
34302;SDS011;20785;50.020;19.916;2022-10-16T02:19:22;16.27;;;9.20;;
34302;SDS011;20785;50.020;19.916;2022-10-16T02:25:27;13.35;;;8.75;;
34302;SDS011;20785;50.020;19.916;2022-10-16T02:31:35;13.38;;;8.33;;
34302;SDS011;20785;50.020;19.916;2022-10-16T02:37:39;12.37;;;8.50;;
34302;SDS011;20785;50.020;19.916;2022-10-16T02:43:42;11.97;;;8.70;;
34302;SDS011;20785;50.020;19.916;2022-10-16T02:49:43;13.68;;;8.50;;
34302;SDS011;20785;50.020;19.916;2022-10-16T02:55:45;12.53;;;8.50;;
34302;SDS011;20785;50.020;19.916;2022-10-16T03:01:46;13.58;;;8.83;;
34302;SDS011;20785;50.020;19.916;2022-10-16T03:07:47;12.85;;;8.63;;
34302;SDS011;20785;50.020;19.916;2022-10-16T03:13:49;13.48;;;8.55;;
34302;SDS011;20785;50.020;19.916;2022-10-16T03:19:50;15.28;;;8.38;;
34302;SDS011;20785;50.020;19.916;2022-10-16T03:25:51;11.85;;;7.75;;
34302;SDS011;20785;50.020;19.916;2022-10-16T03:31:53;12.90;;;8.08;;
34302;SDS011;20785;50.020;19.916;2022-10-16T03:37:54;12.10;;;8.05;;
34302;SDS011;20785;50.020;19.916;2022-10-16T03:43:55;12.98;;;7.92;;
34302;SDS011;20785;50.020;19.916;2022-10-16T03:49:57;14.05;;;8.48;;
34302;SDS011;20785;50.020;19.916;2022-10-16T03:55:58;13.65;;;8.33;;
34302;SDS011;20785;50.020;19.916;2022-10-16T04:01:59;11.40;;;7.92;;
34302;SDS011;20785;50.020;19.916;2022-10-16T04:08:00;9.80;;;6.92;;
34302;SDS011;20785;50.020;19.916;2022-10-16T04:14:03;13.03;;;7.85;;
34302;SDS011;20785;50.020;19.916;2022-10-16T04:20:04;12.70;;;7.80;;
34302;SDS011;20785;50.020;19.916;2022-10-16T04:26:06;11.68;;;7.60;;
34302;SDS011;20785;50.020;19.916;2022-10-16T04:32:08;12.68;;;8.35;;
34302;SDS011;20785;50.020;19.916;2022-10-16T04:38:10;12.10;;;8.23;;
34302;SDS011;20785;50.020;19.916;2022-10-16T04:44:11;13.22;;;8.25;;
34302;SDS011;20785;50.020;19.916;2022-10-16T04:50:13;11.53;;;8.05;;
34302;SDS011;20785;50.020;19.916;2022-10-16T04:56:14;16.40;;;8.78;;
34302;SDS011;20785;50.020;19.916;2022-10-16T05:02:16;13.72;;;8.45;;
34302;SDS011;20785;50.020;19.916;2022-10-16T05:08:17;12.50;;;8.43;;
34302;SDS011;20785;50.020;19.916;2022-10-16T05:14:18;11.22;;;7.50;;
34302;SDS011;20785;50.020;19.916;2022-10-16T05:20:20;12.60;;;7.87;;
34302;SDS011;20785;50.020;19.916;2022-10-16T05:26:22;11.22;;;7.65;;
34302;SDS011;20785;50.020;19.916;2022-10-16T05:32:24;9.05;;;7.37;;
34302;SDS011;20785;50.020;19.916;2022-10-16T05:38:25;12.13;;;8.23;;
34302;SDS011;20785;50.020;19.916;2022-10-16T05:44:27;15.15;;;7.60;;
34302;SDS011;20785;50.020;19.916;2022-10-16T05:50:28;12.13;;;7.67;;
34302;SDS011;20785;50.020;19.916;2022-10-16T05:56:29;13.43;;;7.42;;
34302;SDS011;20785;50.020;19.916;2022-10-16T06:02:31;11.68;;;7.40;;
34302;SDS011;20785;50.020;19.916;2022-10-16T06:08:32;13.25;;;7.62;;
34302;SDS011;20785;50.020;19.916;2022-10-16T06:14:36;10.95;;;7.42;;
34302;SDS011;20785;50.020;19.916;2022-10-16T06:20:37;13.72;;;8.33;;
34302;SDS011;20785;50.020;19.916;2022-10-16T06:26:39;13.13;;;9.25;;
34302;SDS011;20785;50.020;19.916;2022-10-16T06:32:40;12.68;;;8.50;;
34302;SDS011;20785;50.020;19.916;2022-10-16T06:38:42;10.45;;;7.85;;
34302;SDS011;20785;50.020;19.916;2022-10-16T06:44:44;13.68;;;9.00;;
34302;SDS011;20785;50.020;19.916;2022-10-16T06:57:09;17.17;;;9.93;;
34302;SDS011;20785;50.020;19.916;2022-10-16T07:03:11;15.28;;;9.53;;
34302;SDS011;20785;50.020;19.916;2022-10-16T07:09:14;17.80;;;10.08;;
34302;SDS011;20785;50.020;19.916;2022-10-16T07:15:24;16.73;;;9.53;;
34302;SDS011;20785;50.020;19.916;2022-10-16T07:21:22;15.50;;;10.58;;
34302;SDS011;20785;50.020;19.916;2022-10-16T07:27:32;17.12;;;12.07;;
34302;SDS011;20785;50.020;19.916;2022-10-16T07:33:34;23.75;;;13.98;;
34302;SDS011;20785;50.020;19.916;2022-10-16T07:39:36;21.35;;;14.15;;
34302;SDS011;20785;50.020;19.916;2022-10-16T07:45:48;17.70;;;12.35;;
34302;SDS011;20785;50.020;19.916;2022-10-16T07:51:53;20.57;;;12.78;;
34302;SDS011;20785;50.020;19.916;2022-10-16T07:57:54;20.72;;;13.98;;
34302;SDS011;20785;50.020;19.916;2022-10-16T08:03:55;20.12;;;12.60;;
34302;SDS011;20785;50.020;19.916;2022-10-16T08:10:00;19.75;;;12.58;;
34302;SDS011;20785;50.020;19.916;2022-10-16T08:16:04;18.02;;;11.95;;
34302;SDS011;20785;50.020;19.916;2022-10-16T08:22:08;23.00;;;14.53;;
34302;SDS011;20785;50.020;19.916;2022-10-16T08:28:10;19.55;;;12.30;;
34302;SDS011;20785;50.020;19.916;2022-10-16T08:34:16;17.62;;;11.45;;
34302;SDS011;20785;50.020;19.916;2022-10-16T08:40:21;16.97;;;10.48;;
34302;SDS011;20785;50.020;19.916;2022-10-16T08:46:38;14.35;;;10.13;;
34302;SDS011;20785;50.020;19.916;2022-10-16T08:52:51;15.30;;;8.97;;
34302;SDS011;20785;50.020;19.916;2022-10-16T08:58:53;15.93;;;8.80;;
34302;SDS011;20785;50.020;19.916;2022-10-16T09:05:15;12.80;;;8.98;;
34302;SDS011;20785;50.020;19.916;2022-10-16T09:24:32;12.63;;;8.15;;
34302;SDS011;20785;50.020;19.916;2022-10-16T09:30:34;11.35;;;7.33;;
34302;SDS011;20785;50.020;19.916;2022-10-16T09:36:39;10.78;;;7.42;;
34302;SDS011;20785;50.020;19.916;2022-10-16T09:42:48;9.90;;;7.22;;
34302;SDS011;20785;50.020;19.916;2022-10-16T09:48:54;11.08;;;7.80;;
34302;SDS011;20785;50.020;19.916;2022-10-16T09:54:55;9.78;;;6.70;;
34302;SDS011;20785;50.020;19.916;2022-10-16T10:00:59;8.20;;;5.95;;
34302;SDS011;20785;50.020;19.916;2022-10-16T10:07:00;8.68;;;6.17;;
34302;SDS011;20785;50.020;19.916;2022-10-16T10:13:02;8.55;;;6.50;;
34302;SDS011;20785;50.020;19.916;2022-10-16T10:19:03;8.95;;;5.67;;
34302;SDS011;20785;50.020;19.916;2022-10-16T10:31:24;10.00;;;5.83;;
34302;SDS011;20785;50.020;19.916;2022-10-16T10:57:14;7.37;;;5.67;;
34302;SDS011;20785;50.020;19.916;2022-10-16T11:03:41;6.62;;;5.80;;
34302;SDS011;20785;50.020;19.916;2022-10-16T11:10:12;8.08;;;5.53;;
34302;SDS011;20785;50.020;19.916;2022-10-16T11:16:20;7.72;;;5.00;;
34302;SDS011;20785;50.020;19.916;2022-10-16T11:22:42;7.65;;;5.05;;
34302;SDS011;20785;50.020;19.916;2022-10-16T11:28:50;6.53;;;4.95;;
34302;SDS011;20785;50.020;19.916;2022-10-16T11:34:57;7.30;;;5.22;;
34302;SDS011;20785;50.020;19.916;2022-10-16T11:41:04;7.85;;;5.17;;
34302;SDS011;20785;50.020;19.916;2022-10-16T12:18:41;7.62;;;5.00;;
34302;SDS011;20785;50.020;19.916;2022-10-16T12:24:50;9.08;;;5.03;;
34302;SDS011;20785;50.020;19.916;2022-10-16T12:31:02;7.78;;;5.30;;
34302;SDS011;20785;50.020;19.916;2022-10-16T12:37:26;6.27;;;4.63;;
34302;SDS011;20785;50.020;19.916;2022-10-16T12:49:49;4.72;;;3.95;;
34302;SDS011;20785;50.020;19.916;2022-10-16T12:56:04;6.35;;;4.50;;
34302;SDS011;20785;50.020;19.916;2022-10-16T13:15:39;6.37;;;4.05;;
34302;SDS011;20785;50.020;19.916;2022-10-16T13:29:13;5.30;;;3.80;;
34302;SDS011;20785;50.020;19.916;2022-10-16T13:35:22;6.22;;;4.28;;
34302;SDS011;20785;50.020;19.916;2022-10-16T13:41:28;5.65;;;3.77;;
34302;SDS011;20785;50.020;19.916;2022-10-16T13:47:32;5.72;;;3.77;;
34302;SDS011;20785;50.020;19.916;2022-10-16T13:53:34;4.67;;;3.67;;
34302;SDS011;20785;50.020;19.916;2022-10-16T13:59:36;4.20;;;3.70;;
34302;SDS011;20785;50.020;19.916;2022-10-16T14:05:43;5.33;;;3.27;;
34302;SDS011;20785;50.020;19.916;2022-10-16T14:11:50;6.28;;;3.67;;
34302;SDS011;20785;50.020;19.916;2022-10-16T14:18:04;6.00;;;3.90;;
34302;SDS011;20785;50.020;19.916;2022-10-16T14:24:11;9.28;;;4.95;;
34302;SDS011;20785;50.020;19.916;2022-10-16T14:30:16;5.95;;;4.28;;
34302;SDS011;20785;50.020;19.916;2022-10-16T14:36:21;5.17;;;3.70;;
34302;SDS011;20785;50.020;19.916;2022-10-16T14:42:24;4.95;;;3.80;;
34302;SDS011;20785;50.020;19.916;2022-10-16T14:48:29;6.05;;;4.00;;
34302;SDS011;20785;50.020;19.916;2022-10-16T14:54:30;5.12;;;3.77;;
34302;SDS011;20785;50.020;19.916;2022-10-16T15:00:32;5.83;;;3.87;;
34302;SDS011;20785;50.020;19.916;2022-10-16T15:06:33;5.72;;;4.17;;
34302;SDS011;20785;50.020;19.916;2022-10-16T15:12:35;5.67;;;4.08;;
34302;SDS011;20785;50.020;19.916;2022-10-16T15:18:40;6.43;;;3.83;;
34302;SDS011;20785;50.020;19.916;2022-10-16T15:24:42;6.30;;;4.20;;
34302;SDS011;20785;50.020;19.916;2022-10-16T15:30:44;6.72;;;4.30;;
34302;SDS011;20785;50.020;19.916;2022-10-16T15:36:48;7.00;;;4.47;;
34302;SDS011;20785;50.020;19.916;2022-10-16T15:42:52;4.92;;;4.20;;
34302;SDS011;20785;50.020;19.916;2022-10-16T15:48:55;8.70;;;4.15;;
34302;SDS011;20785;50.020;19.916;2022-10-16T15:55:00;6.87;;;4.35;;
34302;SDS011;20785;50.020;19.916;2022-10-16T16:01:13;7.62;;;4.53;;
34302;SDS011;20785;50.020;19.916;2022-10-16T16:07:16;9.43;;;4.47;;
34302;SDS011;20785;50.020;19.916;2022-10-16T16:13:18;9.90;;;4.70;;
34302;SDS011;20785;50.020;19.916;2022-10-16T16:19:20;8.78;;;4.50;;
34302;SDS011;20785;50.020;19.916;2022-10-16T16:25:24;8.83;;;5.50;;
34302;SDS011;20785;50.020;19.916;2022-10-16T16:31:26;10.35;;;4.67;;
34302;SDS011;20785;50.020;19.916;2022-10-16T16:37:31;9.00;;;5.47;;
34302;SDS011;20785;50.020;19.916;2022-10-16T16:43:35;8.50;;;5.35;;
34302;SDS011;20785;50.020;19.916;2022-10-16T16:49:37;9.40;;;5.40;;
34302;SDS011;20785;50.020;19.916;2022-10-16T16:55:40;8.88;;;5.15;;
34302;SDS011;20785;50.020;19.916;2022-10-16T17:01:42;10.53;;;5.20;;
34302;SDS011;20785;50.020;19.916;2022-10-16T17:07:45;10.75;;;5.28;;
34302;SDS011;20785;50.020;19.916;2022-10-16T17:13:49;9.60;;;5.75;;
34302;SDS011;20785;50.020;19.916;2022-10-16T17:20:00;10.93;;;6.00;;
34302;SDS011;20785;50.020;19.916;2022-10-16T17:32:23;11.22;;;6.90;;
34302;SDS011;20785;50.020;19.916;2022-10-16T17:38:24;13.13;;;7.33;;
34302;SDS011;20785;50.020;19.916;2022-10-16T17:44:58;13.18;;;7.65;;
34302;SDS011;20785;50.020;19.916;2022-10-16T17:51:04;11.93;;;7.55;;
34302;SDS011;20785;50.020;19.916;2022-10-16T17:57:18;13.40;;;8.33;;
34302;SDS011;20785;50.020;19.916;2022-10-16T18:03:23;14.35;;;8.10;;
34302;SDS011;20785;50.020;19.916;2022-10-16T18:09:28;11.25;;;7.30;;
34302;SDS011;20785;50.020;19.916;2022-10-16T18:15:37;15.10;;;8.05;;
34302;SDS011;20785;50.020;19.916;2022-10-16T18:21:40;13.93;;;8.03;;
34302;SDS011;20785;50.020;19.916;2022-10-16T18:27:50;13.30;;;7.90;;
34302;SDS011;20785;50.020;19.916;2022-10-16T18:33:53;13.68;;;8.00;;
34302;SDS011;20785;50.020;19.916;2022-10-16T18:40:04;14.83;;;7.62;;
34302;SDS011;20785;50.020;19.916;2022-10-16T18:46:22;12.60;;;7.58;;
34302;SDS011;20785;50.020;19.916;2022-10-16T18:52:24;16.62;;;8.63;;
34302;SDS011;20785;50.020;19.916;2022-10-16T18:58:28;11.70;;;7.30;;
34302;SDS011;20785;50.020;19.916;2022-10-16T19:04:30;18.30;;;11.10;;
34302;SDS011;20785;50.020;19.916;2022-10-16T19:10:34;13.48;;;8.38;;
34302;SDS011;20785;50.020;19.916;2022-10-16T19:16:42;14.58;;;8.28;;
34302;SDS011;20785;50.020;19.916;2022-10-16T19:22:50;15.83;;;8.40;;
34302;SDS011;20785;50.020;19.916;2022-10-16T19:28:57;16.97;;;8.65;;
34302;SDS011;20785;50.020;19.916;2022-10-16T19:35:02;14.75;;;8.53;;
34302;SDS011;20785;50.020;19.916;2022-10-16T19:41:08;15.83;;;8.93;;
34302;SDS011;20785;50.020;19.916;2022-10-16T19:47:13;14.73;;;8.90;;
34302;SDS011;20785;50.020;19.916;2022-10-16T19:53:18;12.35;;;8.43;;
34302;SDS011;20785;50.020;19.916;2022-10-16T19:59:21;15.98;;;8.20;;
34302;SDS011;20785;50.020;19.916;2022-10-16T20:05:26;15.80;;;8.35;;
34302;SDS011;20785;50.020;19.916;2022-10-16T20:11:32;17.80;;;9.48;;
34302;SDS011;20785;50.020;19.916;2022-10-16T20:17:35;14.83;;;8.93;;
34302;SDS011;20785;50.020;19.916;2022-10-16T20:23:42;15.30;;;8.65;;
34302;SDS011;20785;50.020;19.916;2022-10-16T20:29:50;16.75;;;8.88;;
34302;SDS011;20785;50.020;19.916;2022-10-16T20:35:57;20.17;;;9.83;;
34302;SDS011;20785;50.020;19.916;2022-10-16T20:41:59;15.40;;;9.33;;
34302;SDS011;20785;50.020;19.916;2022-10-16T20:48:01;14.35;;;9.03;;
34302;SDS011;20785;50.020;19.916;2022-10-16T20:54:03;16.17;;;9.13;;
34302;SDS011;20785;50.020;19.916;2022-10-16T21:00:08;16.77;;;9.10;;
34302;SDS011;20785;50.020;19.916;2022-10-16T21:06:16;18.32;;;9.93;;
34302;SDS011;20785;50.020;19.916;2022-10-16T21:12:24;18.45;;;10.08;;
34302;SDS011;20785;50.020;19.916;2022-10-16T21:18:30;15.00;;;9.13;;
34302;SDS011;20785;50.020;19.916;2022-10-16T21:30:50;17.15;;;9.35;;
34302;SDS011;20785;50.020;19.916;2022-10-16T21:36:55;13.95;;;9.15;;
34302;SDS011;20785;50.020;19.916;2022-10-16T21:42:59;15.38;;;8.88;;
34302;SDS011;20785;50.020;19.916;2022-10-16T21:49:09;14.58;;;9.15;;
34302;SDS011;20785;50.020;19.916;2022-10-16T21:55:21;14.38;;;9.50;;
34302;SDS011;20785;50.020;19.916;2022-10-16T22:01:24;14.28;;;9.03;;
34302;SDS011;20785;50.020;19.916;2022-10-16T22:07:34;15.28;;;9.33;;
34302;SDS011;20785;50.020;19.916;2022-10-16T22:13:36;19.05;;;10.32;;
34302;SDS011;20785;50.020;19.916;2022-10-16T22:19:38;13.45;;;9.33;;
34302;SDS011;20785;50.020;19.916;2022-10-16T22:25:40;15.13;;;9.43;;
34302;SDS011;20785;50.020;19.916;2022-10-16T22:31:42;18.10;;;9.58;;
34302;SDS011;20785;50.020;19.916;2022-10-16T22:37:50;16.50;;;9.25;;
34302;SDS011;20785;50.020;19.916;2022-10-16T22:43:51;14.73;;;9.38;;
34302;SDS011;20785;50.020;19.916;2022-10-16T22:56:19;15.43;;;9.58;;
34302;SDS011;20785;50.020;19.916;2022-10-16T23:02:28;15.00;;;9.28;;
34302;SDS011;20785;50.020;19.916;2022-10-16T23:08:30;13.98;;;9.20;;
34302;SDS011;20785;50.020;19.916;2022-10-16T23:14:32;14.83;;;8.53;;
34302;SDS011;20785;50.020;19.916;2022-10-16T23:20:34;16.60;;;9.63;;
34302;SDS011;20785;50.020;19.916;2022-10-16T23:26:46;13.43;;;8.85;;
34302;SDS011;20785;50.020;19.916;2022-10-16T23:32:48;16.87;;;9.08;;
34302;SDS011;20785;50.020;19.916;2022-10-16T23:38:49;17.48;;;9.13;;
34302;SDS011;20785;50.020;19.916;2022-10-16T23:44:51;13.98;;;9.48;;
34302;SDS011;20785;50.020;19.916;2022-10-16T23:50:53;12.75;;;8.78;;
34302;SDS011;20785;50.020;19.916;2022-10-16T23:56:54;15.98;;;9.38;;
